createdAt,value
2022-10-03T00:02:20.467Z,7.57
2022-10-03T00:05:19.574Z,8.67
2022-10-03T00:08:08.424Z,7.10
2022-10-03T00:10:49.176Z,9.57
2022-10-03T00:13:25.501Z,10.27
2022-10-03T00:16:09.054Z,7.23
2022-10-03T00:18:48.196Z,10.77
2022-10-03T00:21:26.237Z,8.40
2022-10-03T00:24:04.369Z,7.90
2022-10-03T00:26:42.403Z,11.10
2022-10-03T00:29:36.863Z,8.73
2022-10-03T00:32:22.421Z,7.80
2022-10-03T00:35:06.925Z,10.00
2022-10-03T00:37:38.767Z,7.23
2022-10-03T00:40:37.628Z,8.03
2022-10-03T00:43:35.653Z,6.33
2022-10-03T00:46:45.525Z,7.07
2022-10-03T00:49:57.762Z,7.90
2022-10-03T00:52:46.308Z,6.87
2022-10-03T00:55:22.617Z,7.13
2022-10-03T00:58:02.156Z,9.37
2022-10-03T01:00:31.858Z,9.30
2022-10-03T01:03:20.450Z,7.27
2022-10-03T01:06:06.078Z,9.13
2022-10-03T01:09:06.891Z,10.07
2022-10-03T01:11:45.114Z,9.93
2022-10-03T01:14:28.215Z,10.83
2022-10-03T01:17:06.909Z,11.10
2022-10-03T01:19:58.881Z,12.03
2022-10-03T01:23:07.181Z,12.13
2022-10-03T01:25:41.910Z,14.13
2022-10-03T01:28:50.063Z,12.07
2022-10-03T01:31:22.908Z,11.17
2022-10-03T01:33:58.317Z,11.17
2022-10-03T01:36:33.545Z,11.23
2022-10-03T01:39:10.168Z,11.33
2022-10-03T01:41:48.317Z,10.90
2022-10-03T01:44:24.974Z,14.90
2022-10-03T01:46:59.847Z,13.57
2022-10-03T01:49:34.996Z,12.47
2022-10-03T01:52:10.928Z,10.97
2022-10-03T01:54:44.654Z,13.23
2022-10-03T01:57:21.621Z,11.43
2022-10-03T01:59:59.317Z,10.83
2022-10-03T02:02:34.522Z,14.77
2022-10-03T02:05:09.420Z,12.20
2022-10-03T02:07:46.468Z,11.27
2022-10-03T02:10:25.527Z,11.03
2022-10-03T02:13:05.263Z,13.80
2022-10-03T02:15:47.240Z,13.27
2022-10-03T02:18:19.617Z,14.73
2022-10-03T02:20:52.254Z,14.50
2022-10-03T02:23:39.340Z,17.97
2022-10-03T02:26:31.129Z,18.60
2022-10-03T02:29:20.652Z,15.57
2022-10-03T02:32:18.918Z,14.47
2022-10-03T02:35:10.506Z,13.07
2022-10-03T02:37:58.708Z,12.83
2022-10-03T02:40:53.831Z,14.53
2022-10-03T02:43:56.404Z,12.87
2022-10-03T02:47:01.825Z,12.70
2022-10-03T02:49:59.184Z,11.77
2022-10-03T02:53:05.349Z,13.77
2022-10-03T02:56:11.818Z,14.00
2022-10-03T02:59:17.304Z,11.23
2022-10-03T03:02:01.878Z,12.17
2022-10-03T03:05:08.609Z,11.97
2022-10-03T03:08:17.363Z,11.67
2022-10-03T03:11:10.530Z,10.73
2022-10-03T03:14:09.534Z,11.30
2022-10-03T03:17:21.726Z,12.37
2022-10-03T03:20:11.995Z,11.00
2022-10-03T03:22:58.314Z,12.47
2022-10-03T03:25:49.068Z,11.37
2022-10-03T03:28:28.678Z,13.73
2022-10-03T03:31:07.035Z,10.57
2022-10-03T03:33:46.056Z,12.63
2022-10-03T03:36:25.864Z,10.07
2022-10-03T03:39:03.933Z,10.97
2022-10-03T03:41:46.096Z,14.10
2022-10-03T03:44:41.083Z,11.37
2022-10-03T03:47:31.350Z,13.77
2022-10-03T03:50:15.960Z,11.73
2022-10-03T03:53:00.517Z,13.47
2022-10-03T03:55:50.929Z,12.57
2022-10-03T03:58:36.311Z,14.87
2022-10-03T04:01:39.950Z,12.13
2022-10-03T04:04:20.673Z,11.50
2022-10-03T04:06:58.426Z,12.27
2022-10-03T04:10:00.654Z,15.20
2022-10-03T04:12:49.233Z,12.00
2022-10-03T04:15:40.466Z,9.10
2022-10-03T04:18:43.833Z,11.70
2022-10-03T04:21:50.590Z,9.23
2022-10-03T04:24:43.847Z,7.53
2022-10-03T04:27:42.708Z,6.80
2022-10-03T04:30:15.060Z,7.57
2022-10-03T04:33:09.261Z,11.17
2022-10-03T04:35:57.984Z,9.20
2022-10-03T04:38:43.088Z,9.50
2022-10-03T04:41:23.374Z,5.23
2022-10-03T04:44:00.284Z,8.50
2022-10-03T04:46:34.350Z,8.63
2022-10-03T04:49:13.128Z,9.57
2022-10-03T04:51:55.738Z,10.97
2022-10-03T04:54:30.988Z,11.10
2022-10-03T04:57:07.196Z,10.77
2022-10-03T04:59:46.308Z,10.57
2022-10-03T05:02:33.849Z,6.57
2022-10-03T05:05:37.062Z,9.17
2022-10-03T05:08:15.545Z,9.10
2022-10-03T05:10:56.834Z,8.97
2022-10-03T05:13:44.897Z,7.03
2022-10-03T05:16:24.744Z,7.87
2022-10-03T05:18:57.877Z,6.87
2022-10-03T05:21:36.559Z,6.67
2022-10-03T05:24:20.554Z,5.90
2022-10-03T05:26:58.938Z,7.27
2022-10-03T05:29:39.420Z,9.27
2022-10-03T05:32:20.968Z,7.20
2022-10-03T05:35:04.434Z,8.07
2022-10-03T05:37:49.085Z,7.13
2022-10-03T05:40:21.800Z,9.27
2022-10-03T05:43:03.691Z,10.03
2022-10-03T05:45:44.686Z,7.23
2022-10-03T05:48:26.209Z,9.37
2022-10-03T05:51:23.414Z,8.13
2022-10-03T05:54:17.522Z,6.83
2022-10-03T05:57:16.945Z,8.70
2022-10-03T06:00:09.683Z,7.50
2022-10-03T06:03:03.884Z,4.57
2022-10-03T06:05:38.014Z,6.50
2022-10-03T06:08:44.342Z,7.67
2022-10-03T06:11:22.678Z,5.80
2022-10-03T06:14:13.895Z,7.47
2022-10-03T06:16:50.421Z,5.97
2022-10-03T06:19:33.649Z,8.53
2022-10-03T06:22:49.207Z,5.57
2022-10-03T06:25:49.956Z,7.73
2022-10-03T06:28:42.582Z,7.97
2022-10-03T06:31:53.153Z,4.63
2022-10-03T06:34:50.568Z,7.77
2022-10-03T06:37:49.313Z,4.67
2022-10-03T06:40:47.471Z,5.93
2022-10-03T06:43:41.376Z,7.13
2022-10-03T06:46:35.197Z,5.40
2022-10-03T06:49:37.087Z,4.07
2022-10-03T06:52:32.093Z,5.80
2022-10-03T06:55:45.020Z,6.37
2022-10-03T06:58:48.869Z,7.87
2022-10-03T07:02:00.985Z,7.97
2022-10-03T07:08:12.030Z,6.50
2022-10-03T07:10:55.682Z,7.07
2022-10-03T07:13:48.243Z,11.77
2022-10-03T07:16:50.197Z,8.87
2022-10-03T07:19:39.854Z,8.43
2022-10-03T07:22:55.001Z,8.23
2022-10-03T07:25:58.281Z,10.67
2022-10-03T07:28:54.218Z,7.10
2022-10-03T07:31:37.680Z,8.30
2022-10-03T07:34:33.630Z,7.03
2022-10-03T07:37:40.362Z,5.57
2022-10-03T07:40:25.992Z,8.23
2022-10-03T07:43:26.466Z,8.37
2022-10-03T07:46:39.261Z,6.50
2022-10-03T07:49:23.602Z,6.97
2022-10-03T07:52:10.705Z,7.90
2022-10-03T07:55:11.332Z,6.57
2022-10-03T07:58:15.429Z,6.80
2022-10-03T08:01:04.944Z,4.83
2022-10-03T08:04:32.831Z,5.47
2022-10-03T08:07:12.706Z,6.27
2022-10-03T08:09:59.353Z,9.43
2022-10-03T08:13:02.443Z,7.03
2022-10-03T08:15:41.355Z,8.97
2022-10-03T08:18:43.333Z,4.97
2022-10-03T08:21:18.741Z,9.63
2022-10-03T08:24:19.769Z,6.07
2022-10-03T08:27:09.921Z,4.87
2022-10-03T08:30:19.553Z,6.50
2022-10-03T08:33:18.970Z,7.00
2022-10-03T08:36:29.821Z,6.20
2022-10-03T08:39:11.151Z,6.83
2022-10-03T08:42:09.655Z,4.70
2022-10-03T08:45:19.685Z,6.60
2022-10-03T08:48:38.208Z,6.67
2022-10-03T08:51:50.430Z,5.27
2022-10-03T08:54:52.932Z,6.73
2022-10-03T08:57:37.673Z,10.07
2022-10-03T09:00:18.872Z,6.20
2022-10-03T09:03:43.384Z,5.93
2022-10-03T09:07:16.070Z,4.67
2022-10-03T09:10:14.295Z,4.57
2022-10-03T09:13:09.474Z,2.80
2022-10-03T09:16:20.775Z,3.83
2022-10-03T09:19:06.807Z,5.80
2022-10-03T09:21:57.830Z,5.33
2022-10-03T09:25:18.357Z,4.97
2022-10-03T09:28:31.247Z,5.30
2022-10-03T09:31:14.076Z,3.43
2022-10-03T09:34:24.028Z,4.90
2022-10-03T09:37:21.222Z,5.73
2022-10-03T09:40:39.428Z,5.47
2022-10-03T09:43:38.553Z,3.13
2022-10-03T09:46:37.058Z,3.10
2022-10-03T09:49:48.589Z,2.17
2022-10-03T09:52:35.608Z,2.83
2022-10-03T09:55:19.241Z,4.07
2022-10-03T09:58:05.653Z,2.93
2022-10-03T10:00:51.996Z,3.70
2022-10-03T10:04:11.512Z,3.33
2022-10-03T10:07:05.081Z,3.17
2022-10-03T10:09:58.069Z,3.00
2022-10-03T10:13:00.551Z,5.00
2022-10-03T10:16:08.454Z,2.93
2022-10-03T10:19:20.284Z,2.93
2022-10-03T10:22:13.006Z,3.73
2022-10-03T10:25:24.828Z,3.33
2022-10-03T10:28:25.368Z,2.57
2022-10-03T10:31:25.849Z,3.57
2022-10-03T10:34:35.151Z,3.10
2022-10-03T10:37:54.446Z,2.80
2022-10-03T10:41:07.989Z,3.33
2022-10-03T10:44:05.702Z,4.60
2022-10-03T10:47:06.539Z,1.83
2022-10-03T10:50:19.730Z,2.43
2022-10-03T10:53:37.493Z,3.23
2022-10-03T10:56:39.408Z,3.83
2022-10-03T10:59:49.124Z,2.30
2022-10-03T11:02:54.264Z,2.20
2022-10-03T11:05:49.229Z,4.70
2022-10-03T11:08:59.870Z,4.10
2022-10-03T11:12:28.564Z,4.27
2022-10-03T11:15:36.319Z,2.13
2022-10-03T11:18:43.736Z,4.30
2022-10-03T11:21:51.268Z,1.63
2022-10-03T11:24:51.979Z,2.27
2022-10-03T11:28:09.052Z,1.97
2022-10-03T11:31:08.108Z,1.80
2022-10-03T11:34:09.585Z,2.93
2022-10-03T11:37:08.274Z,2.20
2022-10-03T11:39:45.973Z,2.27
2022-10-03T11:42:27.769Z,3.77
2022-10-03T11:44:59.966Z,1.90
2022-10-03T11:47:55.075Z,3.33
2022-10-03T11:50:40.910Z,2.83
2022-10-03T11:53:41.861Z,4.40
2022-10-03T11:56:39.224Z,2.50
2022-10-03T11:59:43.507Z,2.97
2022-10-03T12:02:17.986Z,3.07
2022-10-03T12:04:59.321Z,4.13
2022-10-03T12:08:00.713Z,2.73
2022-10-03T12:10:39.424Z,2.97
2022-10-03T12:13:15.028Z,3.63
2022-10-03T12:15:46.837Z,1.57
2022-10-03T12:18:22.341Z,1.53
2022-10-03T12:21:21.763Z,2.67
2022-10-03T12:24:08.062Z,1.90
2022-10-03T12:26:49.288Z,1.80
2022-10-03T12:29:21.738Z,1.93
2022-10-03T12:32:10.907Z,2.53
2022-10-03T12:34:42.139Z,1.70
2022-10-03T12:37:37.841Z,2.30
2022-10-03T12:40:13.154Z,2.60
2022-10-03T12:42:49.634Z,3.00
2022-10-03T12:45:30.916Z,3.27
2022-10-03T12:48:16.285Z,2.80
2022-10-03T12:50:48.761Z,3.07
2022-10-03T12:53:32.529Z,3.10
2022-10-03T12:56:08.043Z,3.73
2022-10-03T12:58:48.909Z,3.73
2022-10-03T13:01:26.032Z,2.77
2022-10-03T13:03:56.214Z,2.43
2022-10-03T13:07:03.809Z,3.80
2022-10-03T13:10:05.790Z,3.80
2022-10-03T13:12:43.762Z,2.23
2022-10-03T13:15:49.578Z,2.20
2022-10-03T13:18:46.012Z,2.03
2022-10-03T13:21:45.396Z,3.37
2022-10-03T13:24:16.629Z,2.87
2022-10-03T13:26:55.036Z,1.90
2022-10-03T13:29:30.037Z,2.17
2022-10-03T13:32:12.104Z,2.00
2022-10-03T13:34:55.046Z,3.10
2022-10-03T13:37:31.480Z,3.40
2022-10-03T13:40:05.875Z,3.73
2022-10-03T13:42:40.182Z,3.20
2022-10-03T13:45:15.054Z,2.93
2022-10-03T13:47:52.002Z,3.63
2022-10-03T13:50:27.544Z,3.33
2022-10-03T13:53:01.187Z,3.43
2022-10-03T13:55:39.679Z,2.33
2022-10-03T13:58:32.582Z,4.93
2022-10-03T14:01:23.405Z,2.90
2022-10-03T14:04:09.713Z,2.50
2022-10-03T14:06:43.251Z,3.23
2022-10-03T14:09:32.589Z,3.13
2022-10-03T14:12:13.081Z,2.97
2022-10-03T14:15:21.889Z,3.57
2022-10-03T14:17:56.900Z,3.00
2022-10-03T14:20:31.442Z,2.60
2022-10-03T14:23:23.236Z,3.57
2022-10-03T14:26:00.127Z,2.97
2022-10-03T14:28:32.655Z,3.33
2022-10-03T14:31:11.583Z,3.43
2022-10-03T14:33:47.427Z,5.07
2022-10-03T14:36:30.869Z,4.03
2022-10-03T14:39:22.085Z,2.50
2022-10-03T14:42:24.732Z,3.37
2022-10-03T14:44:58.428Z,3.93
2022-10-03T14:47:37.195Z,3.90
2022-10-03T14:50:08.538Z,3.27
2022-10-03T14:52:42.865Z,2.97
2022-10-03T14:55:17.687Z,5.03
2022-10-03T14:58:09.889Z,4.33
2022-10-03T15:00:43.754Z,3.57
2022-10-03T15:03:28.571Z,2.73
2022-10-03T15:06:01.961Z,2.80
2022-10-03T15:08:37.803Z,2.63
2022-10-03T15:11:07.620Z,2.60
2022-10-03T15:13:40.329Z,2.47
2022-10-03T15:16:11.232Z,2.53
2022-10-03T15:18:53.613Z,2.77
2022-10-03T15:21:22.899Z,3.53
2022-10-03T15:23:56.707Z,2.73
2022-10-03T15:26:26.984Z,4.20
2022-10-03T15:29:00.677Z,3.70
2022-10-03T15:31:35.759Z,4.63
2022-10-03T15:34:10.109Z,3.40
2022-10-03T15:36:42.065Z,2.70
2022-10-03T15:39:21.056Z,3.97
2022-10-03T15:41:54.226Z,4.03
2022-10-03T15:44:32.831Z,3.17
2022-10-03T15:47:05.427Z,3.40
2022-10-03T15:49:41.244Z,3.43
2022-10-03T15:52:18.305Z,3.27
2022-10-03T15:55:06.734Z,3.77
2022-10-03T15:57:45.652Z,3.13
2022-10-03T16:00:24.657Z,3.57
2022-10-03T16:02:59.814Z,3.80
2022-10-03T16:05:30.869Z,4.97
2022-10-03T16:08:05.225Z,4.00
2022-10-03T16:10:39.609Z,3.37
2022-10-03T16:13:21.336Z,3.20
2022-10-03T16:16:11.778Z,5.00
2022-10-03T16:18:48.297Z,3.83
2022-10-03T16:21:42.366Z,4.90
2022-10-03T16:24:25.436Z,5.10
2022-10-03T16:26:57.137Z,5.37
2022-10-03T16:29:31.593Z,4.60
2022-10-03T16:32:06.228Z,7.03
2022-10-03T16:34:37.035Z,6.10
2022-10-03T16:37:17.912Z,4.53
2022-10-03T16:39:56.533Z,6.33
2022-10-03T16:42:28.886Z,5.77
2022-10-03T16:45:01.528Z,4.80
2022-10-03T16:47:36.663Z,3.90
2022-10-03T16:50:25.239Z,6.03
2022-10-03T16:52:58.625Z,5.20
2022-10-03T16:55:31.452Z,4.80
2022-10-03T16:58:05.945Z,4.73
2022-10-03T17:00:42.940Z,5.07
2022-10-03T17:03:19.922Z,5.87
2022-10-03T17:05:50.069Z,8.77
2022-10-03T17:08:41.317Z,6.37
2022-10-03T17:11:16.550Z,4.80
2022-10-03T17:13:48.393Z,6.10
2022-10-03T17:16:23.452Z,6.17
2022-10-03T17:19:08.878Z,5.20
2022-10-03T17:21:42.108Z,4.53
2022-10-03T17:24:15.129Z,5.13
2022-10-03T17:26:45.762Z,4.80
2022-10-03T17:29:18.871Z,5.03
2022-10-03T17:31:53.490Z,8.33
2022-10-03T17:34:24.885Z,6.43
2022-10-03T17:37:22.131Z,7.47
2022-10-03T17:39:56.444Z,5.87
2022-10-03T17:42:39.838Z,5.10
2022-10-03T17:45:27.244Z,8.20
2022-10-03T17:47:59.112Z,9.20
2022-10-03T17:50:32.194Z,6.47
2022-10-03T17:53:02.599Z,5.27
2022-10-03T17:55:37.831Z,6.37
2022-10-03T17:58:10.683Z,6.57
2022-10-03T18:01:03.065Z,8.43
2022-10-03T18:03:35.970Z,6.87
2022-10-03T18:06:48.013Z,8.50
2022-10-03T18:09:32.543Z,7.67
2022-10-03T18:12:17.094Z,9.30
2022-10-03T18:15:20.926Z,8.53
2022-10-03T18:18:01.377Z,8.20
2022-10-03T18:20:43.970Z,8.00
2022-10-03T18:23:36.815Z,7.10
2022-10-03T18:26:19.936Z,6.47
2022-10-03T18:29:02.048Z,6.77
2022-10-03T18:31:34.989Z,8.97
2022-10-03T18:34:11.540Z,7.13
2022-10-03T18:36:47.054Z,7.10
2022-10-03T18:39:18.305Z,7.87
2022-10-03T18:41:50.388Z,6.63
2022-10-03T18:44:22.935Z,6.97
2022-10-03T18:46:56.697Z,5.47
2022-10-03T18:49:33.931Z,6.50
2022-10-03T18:52:10.718Z,5.73
2022-10-03T18:54:52.468Z,6.00
2022-10-03T18:57:25.049Z,7.23
2022-10-03T19:00:01.509Z,6.37
2022-10-03T19:02:36.961Z,5.60
2022-10-03T19:05:20.734Z,3.40
2022-10-03T19:07:56.057Z,2.83
2022-10-03T19:10:38.282Z,3.10
2022-10-03T19:13:17.609Z,2.50
2022-10-03T19:16:10.053Z,3.20
2022-10-03T19:18:43.395Z,2.33
2022-10-03T19:21:18.725Z,2.70
2022-10-03T19:23:51.198Z,2.60
2022-10-03T19:26:26.637Z,3.33
2022-10-03T19:29:01.733Z,2.67
2022-10-03T19:31:36.798Z,2.80
2022-10-03T19:34:07.718Z,3.10
2022-10-03T19:36:38.833Z,3.73
2022-10-03T19:39:14.432Z,5.03
2022-10-03T19:41:51.682Z,5.67
2022-10-03T19:44:23.616Z,6.00
2022-10-03T19:47:05.243Z,6.90
2022-10-03T19:49:54.374Z,7.90
2022-10-03T19:52:30.831Z,8.50
2022-10-03T19:55:05.449Z,9.17
2022-10-03T19:57:43.588Z,9.30
2022-10-03T20:00:24.565Z,8.47
2022-10-03T20:03:13.216Z,7.77
2022-10-03T20:05:48.446Z,7.83
2022-10-03T20:08:23.585Z,6.33
2022-10-03T20:11:17.595Z,7.73
2022-10-03T20:13:50.855Z,10.00
2022-10-03T20:16:22.550Z,6.60
2022-10-03T20:18:56.075Z,5.83
2022-10-03T20:21:27.760Z,8.00
2022-10-03T20:23:56.748Z,8.33
2022-10-03T20:26:33.662Z,6.90
2022-10-03T20:29:21.813Z,5.63
2022-10-03T20:31:51.997Z,5.47
2022-10-03T20:34:25.057Z,8.40
2022-10-03T20:37:02.451Z,6.20
2022-10-03T20:39:34.788Z,6.53
2022-10-03T20:42:10.722Z,7.97
2022-10-03T20:45:00.010Z,8.47
2022-10-03T20:47:49.146Z,10.47
2022-10-03T20:50:25.474Z,8.73
2022-10-03T20:53:00.189Z,9.73
2022-10-03T20:55:31.890Z,6.87
2022-10-03T20:58:11.296Z,9.20
2022-10-03T21:00:46.851Z,7.20
2022-10-03T21:03:23.158Z,8.30
2022-10-03T21:05:55.168Z,11.63
2022-10-03T21:08:26.904Z,7.30
2022-10-03T21:10:59.186Z,6.57
2022-10-03T21:13:33.553Z,9.47
2022-10-03T21:16:03.838Z,7.60
2022-10-03T21:18:34.896Z,10.27
2022-10-03T21:21:09.789Z,8.40
2022-10-03T21:23:50.486Z,10.77
2022-10-03T21:26:24.908Z,8.97
2022-10-03T21:29:16.599Z,10.03
2022-10-03T21:31:51.067Z,9.20
2022-10-03T21:34:24.245Z,8.97
2022-10-03T21:37:10.053Z,8.77
2022-10-03T21:39:46.272Z,8.77
2022-10-03T21:42:22.472Z,9.67
2022-10-03T21:45:10.266Z,7.47
2022-10-03T21:47:48.541Z,8.93
2022-10-03T21:50:21.584Z,8.67
2022-10-03T21:53:11.198Z,9.20
2022-10-03T21:55:53.003Z,8.87
2022-10-03T21:58:45.322Z,6.77
2022-10-03T22:01:18.337Z,8.70
2022-10-03T22:03:52.283Z,9.23
2022-10-03T22:06:28.589Z,8.13
2022-10-03T22:09:03.962Z,9.23
2022-10-03T22:11:43.165Z,9.50
2022-10-03T22:14:19.002Z,10.70
2022-10-03T22:16:56.085Z,11.53
2022-10-03T22:19:34.006Z,11.23
2022-10-03T22:22:17.230Z,12.20
2022-10-03T22:25:01.314Z,10.63
2022-10-03T22:27:37.777Z,8.13
2022-10-03T22:30:09.492Z,10.10
2022-10-03T22:32:45.115Z,11.23
2022-10-03T22:35:36.839Z,8.27
2022-10-03T22:38:05.416Z,12.70
2022-10-03T22:40:35.954Z,12.20
2022-10-03T22:43:07.199Z,14.80
2022-10-03T22:45:40.077Z,11.53
2022-10-03T22:48:13.145Z,12.83
2022-10-03T22:50:43.339Z,10.57
2022-10-03T22:53:14.374Z,10.27
2022-10-03T22:55:48.859Z,9.83
2022-10-03T22:58:17.609Z,9.73
2022-10-03T23:00:48.542Z,16.07
2022-10-03T23:03:20.438Z,16.00
2022-10-03T23:06:05.040Z,13.27
2022-10-03T23:08:45.845Z,12.07
2022-10-03T23:11:21.560Z,10.43
2022-10-03T23:13:50.624Z,8.50
2022-10-03T23:16:35.371Z,8.90
2022-10-03T23:19:14.488Z,14.17
2022-10-03T23:21:49.690Z,12.23
2022-10-03T23:24:25.177Z,12.17
2022-10-03T23:27:24.152Z,11.87
2022-10-03T23:30:53.991Z,9.30
2022-10-03T23:33:53.549Z,11.10
2022-10-03T23:36:25.226Z,9.10
2022-10-03T23:39:01.256Z,9.90
2022-10-03T23:41:57.461Z,9.33
2022-10-03T23:44:48.365Z,9.37
2022-10-03T23:47:20.778Z,10.57
2022-10-03T23:49:52.541Z,11.37
2022-10-03T23:52:26.034Z,11.73
2022-10-03T23:54:57.030Z,10.07
2022-10-03T23:57:30.599Z,9.30
